createdAt,value
2022-12-07T00:01:44.767Z,96.82
2022-12-07T00:04:15.445Z,96.66
2022-12-07T00:06:45.482Z,96.99
2022-12-07T00:09:15.952Z,96.76
2022-12-07T00:11:43.442Z,96.49
2022-12-07T00:14:16.767Z,96.92
2022-12-07T00:16:45.247Z,96.94
2022-12-07T00:19:14.427Z,96.98
2022-12-07T00:21:41.637Z,97.00
2022-12-07T00:24:09.612Z,97.00
2022-12-07T00:26:39.620Z,97.12
2022-12-07T00:29:22.932Z,97.00
2022-12-07T00:31:50.242Z,97.43
2022-12-07T00:34:22.187Z,97.12
2022-12-07T00:36:50.443Z,96.93
2022-12-07T00:39:17.792Z,97.24
2022-12-07T00:41:44.634Z,96.97
2022-12-07T00:44:11.519Z,96.80
2022-12-07T00:46:38.362Z,96.91
2022-12-07T00:49:05.792Z,97.02
2022-12-07T00:51:32.593Z,96.92
2022-12-07T00:53:59.425Z,96.90
2022-12-07T00:56:29.421Z,96.75
2022-12-07T00:58:59.730Z,97.52
2022-12-07T01:01:30.757Z,97.11
2022-12-07T01:03:58.235Z,97.03
2022-12-07T01:06:26.726Z,97.04
2022-12-07T01:08:54.686Z,97.16
2022-12-07T01:11:25.471Z,97.49
2022-12-07T01:13:54.826Z,97.35
2022-12-07T01:16:23.855Z,97.51
2022-12-07T01:18:53.601Z,97.00
2022-12-07T01:21:25.903Z,97.18
2022-12-07T01:23:53.575Z,97.37
2022-12-07T01:26:23.479Z,97.21
2022-12-07T01:28:51.927Z,97.40
2022-12-07T01:31:22.746Z,97.12
2022-12-07T01:33:53.640Z,97.42
2022-12-07T01:36:27.263Z,97.02
2022-12-07T01:39:01.937Z,96.66
2022-12-07T01:41:32.409Z,96.96
2022-12-07T01:44:31.974Z,96.95
2022-12-07T01:47:02.992Z,97.17
2022-12-07T01:49:45.673Z,97.09
2022-12-07T01:52:26.687Z,97.11
2022-12-07T01:54:58.732Z,97.22
2022-12-07T01:57:25.694Z,97.73
2022-12-07T01:59:54.884Z,97.55
2022-12-07T02:02:29.330Z,97.51
2022-12-07T02:04:57.411Z,97.15
2022-12-07T02:07:25.056Z,97.29
2022-12-07T02:09:51.865Z,97.25
2022-12-07T02:12:19.717Z,97.54
2022-12-07T02:14:46.627Z,97.08
2022-12-07T02:17:34.725Z,96.98
2022-12-07T02:20:24.722Z,97.10
2022-12-07T02:23:13.414Z,97.45
2022-12-07T02:25:55.118Z,97.40
2022-12-07T02:29:05.758Z,97.36
2022-12-07T02:31:33.576Z,97.77
2022-12-07T02:34:14.781Z,97.34
2022-12-07T02:36:51.454Z,97.22
2022-12-07T02:39:29.955Z,97.13
2022-12-07T02:42:16.562Z,97.16
2022-12-07T02:44:44.854Z,97.50
2022-12-07T02:47:16.400Z,97.63
2022-12-07T02:49:43.542Z,97.24
2022-12-07T02:52:10.457Z,97.20
2022-12-07T02:54:37.271Z,97.04
2022-12-07T02:57:42.125Z,96.91
2022-12-07T03:00:19.799Z,97.16
2022-12-07T03:03:02.292Z,96.72
2022-12-07T03:05:50.803Z,96.88
2022-12-07T03:08:30.779Z,97.17
2022-12-07T03:11:40.287Z,97.28
2022-12-07T03:14:23.566Z,97.38
2022-12-07T03:16:54.526Z,97.14
2022-12-07T03:19:24.254Z,96.96
2022-12-07T03:21:58.803Z,97.36
2022-12-07T03:24:36.963Z,97.28
2022-12-07T03:27:22.787Z,97.35
2022-12-07T03:30:18.065Z,97.45
2022-12-07T03:32:54.659Z,97.50
2022-12-07T03:35:33.021Z,97.71
2022-12-07T03:38:10.436Z,97.86
2022-12-07T03:40:54.841Z,98.10
2022-12-07T03:43:22.715Z,98.36
2022-12-07T03:46:16.761Z,98.62
2022-12-07T03:48:51.467Z,98.87
2022-12-07T03:51:33.787Z,98.87
2022-12-07T03:54:11.876Z,99.39
2022-12-07T03:56:40.125Z,99.14
2022-12-07T03:59:07.505Z,99.44
2022-12-07T04:01:34.381Z,99.12
2022-12-07T04:04:01.234Z,99.27
2022-12-07T04:06:28.001Z,99.12
2022-12-07T04:08:54.807Z,98.77
2022-12-07T04:11:21.681Z,98.51
2022-12-07T04:14:06.866Z,98.16
2022-12-07T04:16:33.767Z,98.02
2022-12-07T04:19:00.731Z,97.84
2022-12-07T04:21:27.562Z,97.79
2022-12-07T04:23:54.658Z,97.63
2022-12-07T04:26:21.495Z,97.87
2022-12-07T04:28:48.281Z,97.91
2022-12-07T04:31:15.209Z,97.48
2022-12-07T04:33:42.040Z,96.89
2022-12-07T04:36:08.990Z,97.07
2022-12-07T04:38:35.997Z,97.35
2022-12-07T04:41:10.182Z,97.18
2022-12-07T04:43:37.734Z,97.33
2022-12-07T04:46:08.142Z,97.23
2022-12-07T04:48:35.150Z,97.53
2022-12-07T04:51:03.835Z,97.42
2022-12-07T04:53:30.848Z,97.03
2022-12-07T04:55:57.801Z,97.17
2022-12-07T04:58:24.564Z,97.39
2022-12-07T05:00:55.574Z,97.50
2022-12-07T05:03:22.560Z,96.96
2022-12-07T05:05:49.331Z,97.06
2022-12-07T05:08:16.157Z,97.19
2022-12-07T05:10:43.202Z,97.37
2022-12-07T05:13:09.999Z,97.45
2022-12-07T05:15:36.843Z,97.66
2022-12-07T05:18:04.617Z,97.63
2022-12-07T05:20:31.410Z,97.52
2022-12-07T05:22:59.637Z,97.76
2022-12-07T05:25:26.663Z,97.63
2022-12-07T05:27:53.514Z,97.51
2022-12-07T05:30:20.481Z,97.49
2022-12-07T05:32:47.587Z,97.55
2022-12-07T05:35:14.471Z,97.84
2022-12-07T05:37:41.263Z,98.01
2022-12-07T05:40:09.691Z,97.86
2022-12-07T05:42:36.645Z,97.34
2022-12-07T05:45:04.057Z,97.50
2022-12-07T05:47:30.883Z,97.71
2022-12-07T05:49:57.665Z,97.44
2022-12-07T05:52:24.799Z,97.47
2022-12-07T05:54:51.858Z,97.42
2022-12-07T05:57:19.684Z,97.41
2022-12-07T05:59:46.575Z,97.40
2022-12-07T06:02:16.391Z,97.54
2022-12-07T06:04:47.994Z,97.66
2022-12-07T06:07:17.279Z,97.43
2022-12-07T06:09:44.507Z,97.58
2022-12-07T06:12:33.743Z,97.46
2022-12-07T06:15:00.569Z,97.53
2022-12-07T06:17:27.912Z,97.48
2022-12-07T06:19:54.850Z,97.48
2022-12-07T06:22:21.658Z,97.38
2022-12-07T06:24:48.407Z,97.47
2022-12-07T06:27:15.743Z,97.67
2022-12-07T06:29:42.663Z,97.31
2022-12-07T06:32:09.545Z,97.74
2022-12-07T06:34:36.837Z,97.49
2022-12-07T06:37:04.718Z,97.53
2022-12-07T06:39:32.175Z,97.35
2022-12-07T06:41:59.482Z,97.31
2022-12-07T06:44:26.972Z,97.57
2022-12-07T06:47:06.756Z,97.70
2022-12-07T06:49:40.888Z,97.64
2022-12-07T06:52:08.011Z,97.55
2022-12-07T06:54:34.775Z,97.55
2022-12-07T06:57:01.620Z,97.73
2022-12-07T06:59:29.165Z,97.96
2022-12-07T07:01:55.996Z,97.95
2022-12-07T07:04:22.868Z,97.85
2022-12-07T07:06:49.653Z,98.20
2022-12-07T07:09:16.536Z,98.26
2022-12-07T07:11:43.388Z,98.30
2022-12-07T07:14:10.278Z,97.83
2022-12-07T07:16:37.126Z,98.00
2022-12-07T07:19:04.170Z,98.03
2022-12-07T07:21:30.960Z,98.04
2022-12-07T07:23:58.213Z,98.31
2022-12-07T07:26:25.479Z,98.40
2022-12-07T07:28:52.332Z,98.42
2022-12-07T07:31:19.175Z,98.67
2022-12-07T07:33:48.121Z,98.45
2022-12-07T07:36:14.980Z,98.61
2022-12-07T07:38:41.795Z,98.72
2022-12-07T07:41:08.587Z,98.87
2022-12-07T07:43:35.350Z,98.95
2022-12-07T07:46:02.268Z,98.85
2022-12-07T07:48:29.090Z,98.91
2022-12-07T07:50:56.137Z,98.94
2022-12-07T07:53:22.987Z,98.84
2022-12-07T07:55:54.726Z,99.01
2022-12-07T07:58:22.272Z,98.91
2022-12-07T08:00:49.469Z,99.06
2022-12-07T08:03:16.569Z,98.70
2022-12-07T08:05:43.454Z,98.95
2022-12-07T08:08:10.310Z,98.79
2022-12-07T08:10:38.147Z,98.86
2022-12-07T08:13:17.486Z,98.73
2022-12-07T08:15:48.294Z,98.76
2022-12-07T08:18:16.595Z,98.80
2022-12-07T08:20:43.883Z,98.93
2022-12-07T08:23:12.134Z,99.11
2022-12-07T08:25:39.787Z,99.39
2022-12-07T08:28:07.139Z,99.57
2022-12-07T08:30:34.395Z,99.86
2022-12-07T08:33:01.239Z,99.66
2022-12-07T08:35:28.315Z,99.70
2022-12-07T08:37:55.062Z,100.00
2022-12-07T08:40:22.314Z,100.00
2022-12-07T08:42:52.901Z,99.98
2022-12-07T08:45:27.095Z,100.00
2022-12-07T08:48:15.240Z,100.00
2022-12-07T08:50:47.605Z,99.96
2022-12-07T08:53:16.973Z,100.00
2022-12-07T08:55:46.597Z,100.00
2022-12-07T08:58:13.456Z,100.00
2022-12-07T09:00:40.460Z,100.00
2022-12-07T09:03:07.315Z,100.00
2022-12-07T09:05:35.349Z,100.00
2022-12-07T09:08:03.411Z,100.00
2022-12-07T09:10:30.946Z,100.00
2022-12-07T09:13:01.883Z,100.00
2022-12-07T09:15:32.721Z,100.00
2022-12-07T09:17:59.797Z,100.00
2022-12-07T09:20:28.234Z,100.00
2022-12-07T09:22:55.272Z,100.00
2022-12-07T09:25:22.602Z,100.00
2022-12-07T09:27:49.478Z,100.00
2022-12-07T09:30:16.693Z,100.00
2022-12-07T09:32:43.486Z,100.00
2022-12-07T09:35:10.983Z,100.00
2022-12-07T09:37:38.101Z,100.00
2022-12-07T09:40:06.382Z,100.00
2022-12-07T09:42:45.043Z,100.00
2022-12-07T09:45:18.494Z,100.00
2022-12-07T09:47:46.563Z,100.00
2022-12-07T09:50:18.759Z,100.00
2022-12-07T09:52:48.669Z,100.00
2022-12-07T09:55:29.319Z,100.00
2022-12-07T09:57:58.462Z,100.00
2022-12-07T10:00:26.525Z,100.00
2022-12-07T10:03:02.308Z,100.00
2022-12-07T10:05:36.669Z,100.00
2022-12-07T10:08:04.151Z,100.00
2022-12-07T10:10:38.517Z,100.00
2022-12-07T10:13:41.539Z,100.00
2022-12-07T10:16:30.060Z,100.00
2022-12-07T10:18:56.999Z,100.00
2022-12-07T10:21:29.639Z,100.00
2022-12-07T10:24:11.469Z,100.00
2022-12-07T10:26:52.140Z,100.00
2022-12-07T10:29:29.737Z,100.00
2022-12-07T10:32:04.294Z,100.00
2022-12-07T10:34:43.385Z,100.00
2022-12-07T10:37:17.782Z,100.00
2022-12-07T10:39:54.226Z,100.00
2022-12-07T10:42:32.794Z,100.00
2022-12-07T10:45:17.907Z,100.00
2022-12-07T10:48:22.321Z,100.00
2022-12-07T10:51:08.010Z,100.00
2022-12-07T10:53:50.520Z,100.00
2022-12-07T10:57:05.486Z,100.00
2022-12-07T10:59:56.929Z,100.00
2022-12-07T11:02:45.233Z,100.00
2022-12-07T11:05:39.898Z,100.00
2022-12-07T11:08:34.142Z,100.00
2022-12-07T11:11:27.077Z,100.00
2022-12-07T11:14:15.044Z,100.00
2022-12-07T11:17:07.590Z,100.00
2022-12-07T11:20:04.305Z,100.00
2022-12-07T11:22:55.826Z,100.00
2022-12-07T11:26:04.349Z,100.00
2022-12-07T11:29:02.634Z,100.00
2022-12-07T11:32:07.732Z,100.00
2022-12-07T11:35:31.618Z,100.00
2022-12-07T11:38:12.320Z,100.00
2022-12-07T11:40:42.005Z,100.00
2022-12-07T11:43:23.006Z,100.00
2022-12-07T11:46:02.501Z,100.00
2022-12-07T11:49:06.819Z,100.00
2022-12-07T11:51:38.497Z,100.00
2022-12-07T11:54:21.302Z,100.00
2022-12-07T11:56:51.167Z,100.00
2022-12-07T11:59:28.823Z,100.00
2022-12-07T12:02:15.136Z,100.00
2022-12-07T12:05:01.129Z,100.00
2022-12-07T12:10:41.553Z,100.00
2022-12-07T12:16:41.426Z,100.00
2022-12-07T12:19:39.582Z,100.00
2022-12-07T12:22:18.126Z,100.00
2022-12-07T12:24:52.094Z,100.00
2022-12-07T12:27:30.997Z,100.00
2022-12-07T12:30:04.067Z,100.00
2022-12-07T12:32:39.763Z,100.00
2022-12-07T12:35:31.487Z,100.00
2022-12-07T12:38:26.253Z,100.00
2022-12-07T12:40:53.355Z,100.00
2022-12-07T12:43:50.341Z,100.00
2022-12-07T12:46:36.148Z,100.00
2022-12-07T12:49:21.469Z,100.00
2022-12-07T12:52:04.314Z,100.00
2022-12-07T12:54:35.577Z,99.86
2022-12-07T12:57:27.028Z,99.08
2022-12-07T12:59:53.914Z,99.16
2022-12-07T13:02:49.876Z,98.51
2022-12-07T13:05:28.783Z,97.07
2022-12-07T13:08:19.195Z,96.23
2022-12-07T13:10:49.624Z,95.92
2022-12-07T13:13:16.628Z,96.13
2022-12-07T13:15:48.821Z,94.96
2022-12-07T13:18:33.972Z,94.46
2022-12-07T13:21:09.852Z,94.65
2022-12-07T13:23:46.584Z,94.63
2022-12-07T13:26:19.543Z,93.80
2022-12-07T13:29:02.390Z,93.65
2022-12-07T13:31:58.223Z,93.87
2022-12-07T13:34:28.000Z,92.88
2022-12-07T13:36:55.065Z,92.94
2022-12-07T13:39:27.836Z,92.53
2022-12-07T13:42:01.123Z,92.98
2022-12-07T13:44:29.713Z,93.00
2022-12-07T13:47:17.196Z,92.77
2022-12-07T13:49:53.692Z,92.03
2022-12-07T13:52:30.039Z,91.10
2022-12-07T13:55:15.366Z,91.57
2022-12-07T13:57:43.043Z,91.49
2022-12-07T14:00:36.480Z,92.04
2022-12-07T14:03:12.647Z,91.60
2022-12-07T14:05:41.849Z,91.80
2022-12-07T14:08:11.853Z,91.81
2022-12-07T14:10:51.098Z,91.80
2022-12-07T14:13:36.926Z,91.24
2022-12-07T14:16:38.091Z,91.22
2022-12-07T14:19:21.429Z,91.49
2022-12-07T14:21:48.546Z,91.58
2022-12-07T14:24:21.435Z,90.84
2022-12-07T14:26:51.411Z,91.17
2022-12-07T14:29:31.389Z,91.06
2022-12-07T14:32:13.863Z,90.97
2022-12-07T14:34:40.944Z,91.05
2022-12-07T14:37:11.813Z,90.68
2022-12-07T14:39:38.638Z,90.86
2022-12-07T14:42:05.502Z,90.56
2022-12-07T14:44:35.814Z,90.85
2022-12-07T14:49:49.837Z,90.58
2022-12-07T14:55:27.342Z,90.96
2022-12-07T14:57:55.394Z,90.94
2022-12-07T15:00:24.949Z,91.13
2022-12-07T15:02:52.618Z,91.29
2022-12-07T15:05:20.257Z,91.13
2022-12-07T15:07:48.704Z,91.28
2022-12-07T15:10:31.075Z,91.58
2022-12-07T15:13:23.390Z,91.42
2022-12-07T15:15:53.340Z,91.83
2022-12-07T15:18:22.055Z,91.93
2022-12-07T15:20:49.294Z,91.87
2022-12-07T15:23:16.694Z,92.02
2022-12-07T15:25:45.181Z,92.61
2022-12-07T15:28:12.035Z,92.32
2022-12-07T15:30:40.851Z,92.48
2022-12-07T15:33:07.755Z,92.70
2022-12-07T15:35:34.543Z,92.79
2022-12-07T15:38:01.346Z,92.79
2022-12-07T15:40:28.267Z,92.75
2022-12-07T15:42:55.066Z,92.59
2022-12-07T15:45:21.845Z,92.75
2022-12-07T15:48:26.340Z,93.12
2022-12-07T15:50:36.358Z,92.93
2022-12-07T15:53:03.285Z,92.97
2022-12-07T15:55:30.104Z,93.10
2022-12-07T15:57:56.945Z,93.18
2022-12-07T16:00:23.871Z,93.50
2022-12-07T16:02:50.846Z,93.60
2022-12-07T16:05:18.042Z,94.02
2022-12-07T16:07:47.635Z,94.16
2022-12-07T16:10:14.741Z,94.34
2022-12-07T16:12:41.511Z,94.57
2022-12-07T16:15:09.028Z,94.18
2022-12-07T16:17:35.859Z,94.38
2022-12-07T16:20:02.685Z,94.62
2022-12-07T16:22:29.453Z,94.59
2022-12-07T16:24:56.213Z,94.62
2022-12-07T16:27:23.077Z,94.92
2022-12-07T16:29:49.915Z,95.38
2022-12-07T16:32:16.725Z,95.33
2022-12-07T16:34:43.676Z,95.14
2022-12-07T16:37:10.844Z,95.40
2022-12-07T16:39:37.882Z,95.14
2022-12-07T16:42:04.931Z,95.00
2022-12-07T16:44:32.727Z,95.25
2022-12-07T16:47:00.184Z,95.04
2022-12-07T16:49:27.153Z,94.85
2022-12-07T16:52:19.961Z,95.02
2022-12-07T16:54:40.690Z,94.67
2022-12-07T16:57:07.485Z,94.86
2022-12-07T16:59:34.448Z,94.90
2022-12-07T17:02:01.248Z,94.71
2022-12-07T17:04:28.261Z,94.84
2022-12-07T17:06:55.394Z,94.85
2022-12-07T17:09:22.186Z,94.55
2022-12-07T17:11:49.631Z,94.59
2022-12-07T17:14:35.531Z,94.69
2022-12-07T17:17:02.959Z,94.36
2022-12-07T17:19:29.750Z,94.67
2022-12-07T17:21:56.558Z,94.89
2022-12-07T17:24:23.488Z,94.89
2022-12-07T17:26:50.430Z,95.64
2022-12-07T17:29:19.515Z,94.72
2022-12-07T17:31:51.741Z,94.75
2022-12-07T17:34:19.617Z,94.87
2022-12-07T17:36:46.907Z,94.38
2022-12-07T17:39:17.839Z,94.52
2022-12-07T17:42:04.021Z,94.48
2022-12-07T17:44:31.245Z,94.65
2022-12-07T17:46:59.301Z,94.92
2022-12-07T17:49:27.375Z,95.04
2022-12-07T17:52:13.158Z,94.90
2022-12-07T17:54:40.098Z,94.79
2022-12-07T17:57:07.600Z,94.62
2022-12-07T17:59:34.746Z,95.01
2022-12-07T18:02:01.813Z,95.24
2022-12-07T18:04:28.667Z,95.77
2022-12-07T18:06:55.561Z,95.47
2022-12-07T18:09:22.914Z,95.41
2022-12-07T18:11:50.033Z,95.27
2022-12-07T18:14:17.096Z,95.90
2022-12-07T18:16:44.377Z,95.48
2022-12-07T18:19:13.748Z,95.90
2022-12-07T18:21:40.741Z,95.85
2022-12-07T18:24:10.902Z,95.79
2022-12-07T18:26:38.204Z,96.05
2022-12-07T18:29:07.367Z,95.88
2022-12-07T18:31:35.850Z,96.03
2022-12-07T18:34:08.849Z,96.08
2022-12-07T18:36:35.712Z,96.13
2022-12-07T18:39:07.530Z,96.06
2022-12-07T18:41:35.258Z,96.12
2022-12-07T18:44:05.322Z,95.90
2022-12-07T18:46:33.798Z,95.88
2022-12-07T18:49:00.849Z,95.54
2022-12-07T18:51:32.639Z,95.78
2022-12-07T18:54:01.548Z,95.91
2022-12-07T18:56:29.135Z,95.79
2022-12-07T18:59:17.729Z,95.81
2022-12-07T19:01:48.508Z,96.18
2022-12-07T19:04:16.622Z,96.10
2022-12-07T19:06:46.031Z,95.88
2022-12-07T19:09:13.670Z,96.12
2022-12-07T19:11:51.314Z,96.11
2022-12-07T19:14:32.584Z,96.06
2022-12-07T19:17:04.391Z,96.17
2022-12-07T19:19:41.468Z,96.40
2022-12-07T19:22:10.319Z,96.07
2022-12-07T19:24:37.994Z,96.16
2022-12-07T19:27:07.291Z,96.14
2022-12-07T19:29:35.432Z,96.46
2022-12-07T19:32:04.883Z,96.09
2022-12-07T19:34:32.165Z,96.27
2022-12-07T19:36:59.111Z,96.17
2022-12-07T19:39:26.182Z,96.13
2022-12-07T19:41:53.013Z,96.23
2022-12-07T19:44:25.917Z,96.14
2022-12-07T19:47:00.962Z,96.26
2022-12-07T19:49:35.286Z,96.08
2022-12-07T19:52:07.814Z,96.10
2022-12-07T19:54:36.040Z,96.18
2022-12-07T19:57:05.810Z,96.11
2022-12-07T19:59:33.884Z,96.25
2022-12-07T20:02:00.774Z,96.27
2022-12-07T20:04:30.594Z,96.31
2022-12-07T20:07:00.560Z,96.05
2022-12-07T20:09:28.260Z,95.89
2022-12-07T20:12:13.969Z,97.49
2022-12-07T20:14:41.144Z,96.48
2022-12-07T20:17:08.017Z,96.99
2022-12-07T20:19:38.893Z,96.95
2022-12-07T20:22:06.356Z,96.69
2022-12-07T20:24:35.245Z,96.58
2022-12-07T20:27:04.258Z,96.65
2022-12-07T20:29:31.601Z,96.67
2022-12-07T20:31:58.532Z,96.70
2022-12-07T20:34:26.613Z,96.65
2022-12-07T20:36:55.510Z,96.77
2022-12-07T20:39:23.824Z,96.82
2022-12-07T20:42:10.281Z,96.85
2022-12-07T20:44:37.162Z,96.93
2022-12-07T20:47:06.211Z,96.75
2022-12-07T20:49:33.335Z,97.05
2022-12-07T20:52:00.198Z,97.57
2022-12-07T20:54:27.037Z,97.42
2022-12-07T20:56:53.884Z,97.41
2022-12-07T20:59:21.173Z,97.74
2022-12-07T21:01:48.899Z,97.40
2022-12-07T21:04:16.503Z,97.35
2022-12-07T21:06:43.334Z,97.36
2022-12-07T21:09:11.958Z,96.89
2022-12-07T21:11:39.726Z,97.04
2022-12-07T21:14:08.038Z,96.73
2022-12-07T21:16:36.599Z,96.60
2022-12-07T21:19:04.799Z,97.09
2022-12-07T21:21:33.086Z,96.80
2022-12-07T21:24:02.787Z,96.95
2022-12-07T21:26:34.029Z,97.10
2022-12-07T21:29:05.021Z,97.26
2022-12-07T21:31:32.117Z,96.93
2022-12-07T21:33:58.979Z,97.02
2022-12-07T21:36:26.951Z,96.78
2022-12-07T21:38:54.072Z,96.61
2022-12-07T21:41:32.338Z,96.81
2022-12-07T21:43:59.916Z,96.73
2022-12-07T21:46:33.767Z,97.07
2022-12-07T21:49:07.657Z,97.05
2022-12-07T21:51:35.522Z,96.75
2022-12-07T21:54:04.616Z,96.84
2022-12-07T21:56:38.830Z,96.83
2022-12-07T21:59:23.913Z,97.26
2022-12-07T22:01:51.861Z,97.15
2022-12-07T22:04:23.524Z,97.11
2022-12-07T22:06:51.534Z,97.19
2022-12-07T22:09:19.127Z,96.94
2022-12-07T22:11:47.034Z,96.89
2022-12-07T22:14:32.331Z,96.71
2022-12-07T22:16:59.265Z,97.46
2022-12-07T22:19:26.875Z,97.30
2022-12-07T22:21:53.751Z,96.93
2022-12-07T22:24:20.602Z,96.55
2022-12-07T22:26:47.832Z,96.73
2022-12-07T22:29:14.699Z,96.81
2022-12-07T22:31:41.703Z,96.80
2022-12-07T22:34:16.092Z,96.86
2022-12-07T22:36:43.106Z,97.06
2022-12-07T22:39:10.734Z,97.00
2022-12-07T22:41:37.698Z,96.79
2022-12-07T22:44:07.861Z,96.61
2022-12-07T22:46:35.243Z,96.82
2022-12-07T22:49:02.743Z,96.86
2022-12-07T22:51:36.108Z,97.00
2022-12-07T22:54:05.553Z,97.37
2022-12-07T22:56:35.930Z,96.96
2022-12-07T22:59:04.411Z,96.62
2022-12-07T23:01:31.510Z,96.95
2022-12-07T23:03:58.489Z,96.82
2022-12-07T23:06:29.489Z,96.89
2022-12-07T23:08:58.987Z,96.79
2022-12-07T23:11:49.291Z,96.71
2022-12-07T23:14:22.942Z,96.83
2022-12-07T23:16:49.815Z,97.30
2022-12-07T23:19:17.028Z,97.67
2022-12-07T23:21:44.211Z,97.46
2022-12-07T23:24:15.363Z,97.22
2022-12-07T23:26:43.561Z,97.42
2022-12-07T23:29:16.938Z,97.55
2022-12-07T23:31:44.803Z,97.30
2022-12-07T23:34:11.701Z,97.33
2022-12-07T23:36:38.748Z,97.25
2022-12-07T23:39:05.549Z,97.26
2022-12-07T23:41:32.388Z,97.33
2022-12-07T23:44:01.374Z,97.22
2022-12-07T23:46:31.633Z,97.21
2022-12-07T23:49:01.536Z,96.99
2022-12-07T23:51:28.443Z,97.67
2022-12-07T23:53:57.972Z,97.19
2022-12-07T23:56:28.733Z,97.27
2022-12-07T23:58:56.740Z,97.87
